»·PEaware :: DAL213 KLAS-KPSP

DAL213 :: KLAS-KPSP

FLIGHT INFORMATION

Flight Status: Arrived
Operator:
Delta Air Lines
More flights by this operator :: More flights under this callsign
Pilot: Nico L. (9332)
Aircraft: BOEING 737-800
(B738)
More flights by this aircraft type
Origin: KLAS McCarran Intl
United States
Destination: KPSP Palm Springs Intl
United States
More flights between these airports :: More routes between these airports
Route: +BOACH8 TNP CLOWD1
File this flight plan on PilotEdge
Remarks: Live Streaming on Twitch "DAL213" and YT
Altitude:
(Current/Filed)
24,000ft
Speed:
(Current/Filed)
400kts
Departed: 27-Apr-19 02:58 PM
Arrived: 27-Apr-19 03:31 PM
Distance/Time
Traveled:
151nm/0:33
Distance/Time
To Go:
Arrived

Flight Plot

Page will automatically refresh every two minutes.

Flight plan parsing failed; only flown route is shown


Map Options




Map Legend


Flown Route
Filed Route
Departure Airport
Arrival Airport
Navaid (VOR, NDB)
Fix

Horizontal Profiles

Position Reports

Time Latitude Longitude Heading Altitude Ground
Speed
27-Apr-19 14:47 36.087160 -115.153111 181 2190ft 0kts
27-Apr-19 14:48 36.087160 -115.153111 181 2190ft 0kts
27-Apr-19 14:49 36.087160 -115.153111 181 2190ft 0kts
27-Apr-19 14:50 36.087160 -115.153111 181 2190ft 0kts
27-Apr-19 14:51 36.087713 -115.152846 225 2190ft 2kts
27-Apr-19 14:52 36.087803 -115.152711 234 2190ft 0kts
27-Apr-19 14:53 36.087803 -115.152711 234 2190ft 0kts
27-Apr-19 14:54 36.087868 -115.154075 268 2190ft 0kts
27-Apr-19 14:55 36.091113 -115.155003 0 2190ft 20kts
27-Apr-19 14:56 36.095881 -115.152853 23 2190ft 15kts
27-Apr-19 14:57 36.096595 -115.154712 204 2190ft 53kts
27-Apr-19 14:58 36.061047 -115.176123 203 3329ft 178kts
27-Apr-19 14:59 36.012470 -115.210510 233 5100ft 237kts
27-Apr-19 15:00 35.973535 -115.287407 221 7452ft 279kts
27-Apr-19 15:01 35.897658 -115.310377 185 10396ft 298kts
27-Apr-19 15:02 35.806427 -115.309402 174 12266ft 351kts
27-Apr-19 15:03 35.706714 -115.297927 175 15108ft 367kts
27-Apr-19 15:04 35.602804 -115.297484 183 17983ft 382kts
27-Apr-19 15:05 35.494345 -115.301953 183 20608ft 398kts
27-Apr-19 15:06 35.381146 -115.306433 184 22901ft 413kts
27-Apr-19 15:07 35.263006 -115.311091 184 23859ft 442kts
27-Apr-19 15:08 35.139207 -115.315953 184 23871ft 444kts
27-Apr-19 15:09 35.015841 -115.320789 184 23851ft 444kts
27-Apr-19 15:10 34.892439 -115.325612 184 23858ft 444kts
27-Apr-19 15:11 34.769724 -115.338483 199 23865ft 438kts
27-Apr-19 15:12 34.654937 -115.386560 202 23874ft 436kts
27-Apr-19 15:13 34.540549 -115.436096 202 23880ft 435kts
27-Apr-19 15:14 34.427747 -115.485248 202 22523ft 428kts
27-Apr-19 15:15 34.320674 -115.540357 219 20490ft 411kts
27-Apr-19 15:16 34.236352 -115.631118 223 18411ft 400kts
27-Apr-19 15:17 34.155772 -115.721018 223 16558ft 390kts
27-Apr-19 15:18 34.072923 -115.803261 214 14854ft 376kts
27-Apr-19 15:19 33.994347 -115.866223 214 13288ft 305kts
27-Apr-19 15:20 33.926170 -115.920757 215 11654ft 289kts
27-Apr-19 15:21 33.865850 -115.984131 222 9842ft 286kts
27-Apr-19 15:22 33.807550 -116.048866 223 8093ft 282kts
27-Apr-19 15:23 33.761539 -116.117619 269 7064ft 251kts
27-Apr-19 15:24 33.775751 -116.195781 283 6838ft 235kts
27-Apr-19 15:25 33.781809 -116.275308 261 4815ft 244kts
27-Apr-19 15:26 33.777774 -116.347743 272 3638ft 185kts
27-Apr-19 15:27 33.781866 -116.404504 273 2306ft 152kts
27-Apr-19 15:28 33.786396 -116.451876 284 1369ft 140kts
27-Apr-19 15:29 33.807925 -116.488198 322 769ft 134kts
27-Apr-19 15:30 33.832001 -116.509774 323 486ft 37kts
27-Apr-19 15:31 33.832908 -116.511873 202 486ft 8kts
27-Apr-19 15:32 33.828859 -116.509068 137 486ft 18kts
27-Apr-19 15:33 33.824875 -116.506369 176 486ft 13kts
27-Apr-19 15:34 33.823880 -116.506502 190 486ft 0kts
27-Apr-19 15:35 33.823880 -116.506502 190 486ft 0kts
27-Apr-19 15:36 33.823880 -116.506502 190 486ft 0kts
27-Apr-19 15:37 33.823880 -116.506502 190 486ft 0kts
27-Apr-19 15:38 33.823880 -116.506502 190 486ft 0kts
27-Apr-19 15:39 33.823880 -116.506502 190 486ft 0kts
27-Apr-19 15:40 33.823880 -116.506502 190 486ft 0kts
27-Apr-19 15:41 33.823880 -116.506502 190 486ft 0kts
27-Apr-19 15:42 33.823880 -116.506502 190 486ft 0kts
27-Apr-19 15:43 33.823880 -116.506502 190 486ft 0kts
27-Apr-19 15:44 33.823880 -116.506502 190 486ft 0kts
27-Apr-19 15:45 33.823880 -116.506502 190 486ft 0kts

Navigation Log

Ident Type
Flight plan parsing failed, navigation log unavailable